Grahamsville, NY

7:54 AM EST on November 28, 2014 (GMT -0500)
Grahamsville, NY | Change Station
CLOSE
Current Station
Personal Weather Station
Location: Grahamsville, NY
Elevation: 1017 ft
Nearby Weather Stations

Elev 1017 ft 41.85 °N, 74.54 °W | Updated 8 seconds ago

Mostly Cloudy
Mostly Cloudy
26.8 °F
Feels Like 23 °F
N
3.1
Wind Variable Wind from East
Gusts 3.1 mph

Today
High -- | Low -- °F
--% Chance of Precip.
Yesterday
High -- | Low -- °F
Precip. -- in
7:02 AM 4:29 PM
Waxing Crescent, 40% visible
Pressure 30.09 in
Visibility 10.0 miles
Clouds Overcast 2600 ft
Windchill 23 °F
Dew Point 19 °F
Humidity 72%
Rainfall 0.00 in
Snow Depth Not available.
UV 0 out of 12
Pollen .10 out of 12
Air Quality Not available.
Flu Activity Not available.
METAR KMSV 281235Z AUTO 32010G19KT 10SM OVC026 M04/M08 A3009 RMK AO1

More Conditions Fewer Conditions

Pressure 30.09 in
Visibility 10.0 miles
Clouds Overcast 2600 ft
Windchill 23 °F
Dew Point 19 °F
Humidity 72%
Rainfall 0.00 in
Snow Depth Not available.
UV 0 out of 12
Pollen .10 out of 12
Air Quality Not available.
Flu Activity Not available.
METAR KMSV 281235Z AUTO 32010G19KT 10SM OVC026 M04/M08 A3009 RMK AO1

More Conditions Fewer Conditions

Nowcast | as of 6:33 am EST on November 28, 2014

Light snow is moving through central New York and northeast Pennsylvania. Locations across the Susquehanna region may pick up a quick inch through 8 am but most locations will only see a dusting through this time.

×

10-Day Weather Forecast

Almanac

Astronomy

Nov. 28, 2014 Rise Set
Actual Time
Civil Twilight
Nautical Twilight
Astronomical Twilight
Moon
Length of Visible Light
Length of Day
Tomorrow will be .
, % of the Moon is Illuminated

Today's Extremes

State Highs State Lows

Community

WunderPhotos

Upload Photos

1,774,199 photos uploaded!

WunderBlogs® & News

Nearby

Air Quality

  Air Quality AQ Index Pollutant
Not available.

Snow Depth

Station Depth Elevation

Earthquake Activity

City Distance Mag. Time & Date
Minimum magnitude displayed is 2.5.

Coastal Water Temperatures

Place Temperature

Nearby Weather Stations